sensor_id;sensor_type;location;lat;lon;timestamp;P1;durP1;ratioP1;P2;durP2;ratioP2
54241;SDS011;40156;51.080;17.082;2023-03-13T00:00:58;4.90;;;3.22;;
54241;SDS011;40156;51.080;17.082;2023-03-13T00:03:26;3.33;;;2.45;;
54241;SDS011;40156;51.080;17.082;2023-03-13T00:05:55;6.78;;;2.78;;
54241;SDS011;40156;51.080;17.082;2023-03-13T00:08:23;3.83;;;2.60;;
54241;SDS011;40156;51.080;17.082;2023-03-13T00:10:51;4.32;;;2.50;;
54241;SDS011;40156;51.080;17.082;2023-03-13T00:13:18;4.53;;;2.47;;
54241;SDS011;40156;51.080;17.082;2023-03-13T00:15:46;4.55;;;2.35;;
54241;SDS011;40156;51.080;17.082;2023-03-13T00:18:13;3.67;;;2.20;;
54241;SDS011;40156;51.080;17.082;2023-03-13T00:20:41;2.72;;;2.10;;
54241;SDS011;40156;51.080;17.082;2023-03-13T00:23:08;5.45;;;1.75;;
54241;SDS011;40156;51.080;17.082;2023-03-13T00:25:36;3.67;;;2.30;;
54241;SDS011;40156;51.080;17.082;2023-03-13T00:28:03;3.38;;;1.80;;
54241;SDS011;40156;51.080;17.082;2023-03-13T00:30:31;3.15;;;2.10;;
54241;SDS011;40156;51.080;17.082;2023-03-13T00:32:58;3.28;;;2.00;;
54241;SDS011;40156;51.080;17.082;2023-03-13T00:35:26;5.35;;;2.10;;
54241;SDS011;40156;51.080;17.082;2023-03-13T00:37:54;4.80;;;2.90;;
54241;SDS011;40156;51.080;17.082;2023-03-13T00:40:21;4.35;;;1.90;;
54241;SDS011;40156;51.080;17.082;2023-03-13T00:42:49;3.22;;;2.08;;
54241;SDS011;40156;51.080;17.082;2023-03-13T00:45:16;3.60;;;2.00;;
54241;SDS011;40156;51.080;17.082;2023-03-13T00:47:44;3.17;;;2.22;;
54241;SDS011;40156;51.080;17.082;2023-03-13T00:50:11;3.50;;;1.98;;
54241;SDS011;40156;51.080;17.082;2023-03-13T00:52:39;4.18;;;2.03;;
54241;SDS011;40156;51.080;17.082;2023-03-13T00:55:06;3.15;;;1.80;;
54241;SDS011;40156;51.080;17.082;2023-03-13T00:57:34;3.50;;;1.60;;
54241;SDS011;40156;51.080;17.082;2023-03-13T01:00:03;2.97;;;1.92;;
54241;SDS011;40156;51.080;17.082;2023-03-13T01:02:31;3.78;;;1.80;;
54241;SDS011;40156;51.080;17.082;2023-03-13T01:04:59;4.07;;;1.90;;
54241;SDS011;40156;51.080;17.082;2023-03-13T01:07:27;4.70;;;2.05;;
54241;SDS011;40156;51.080;17.082;2023-03-13T01:09:55;5.18;;;1.90;;
54241;SDS011;40156;51.080;17.082;2023-03-13T01:12:22;3.13;;;1.80;;
54241;SDS011;40156;51.080;17.082;2023-03-13T01:14:50;5.25;;;2.40;;
54241;SDS011;40156;51.080;17.082;2023-03-13T01:17:17;3.15;;;1.77;;
54241;SDS011;40156;51.080;17.082;2023-03-13T01:19:45;6.43;;;2.90;;
54241;SDS011;40156;51.080;17.082;2023-03-13T01:22:13;4.38;;;2.90;;
54241;SDS011;40156;51.080;17.082;2023-03-13T01:24:40;3.42;;;2.25;;
54241;SDS011;40156;51.080;17.082;2023-03-13T01:27:08;7.38;;;2.20;;
54241;SDS011;40156;51.080;17.082;2023-03-13T01:29:35;3.97;;;2.40;;
54241;SDS011;40156;51.080;17.082;2023-03-13T01:32:03;4.47;;;2.50;;
54241;SDS011;40156;51.080;17.082;2023-03-13T01:34:31;3.38;;;2.00;;
54241;SDS011;40156;51.080;17.082;2023-03-13T01:37:12;3.92;;;1.90;;
54241;SDS011;40156;51.080;17.082;2023-03-13T01:39:39;5.03;;;2.17;;
54241;SDS011;40156;51.080;17.082;2023-03-13T01:42:07;4.05;;;2.30;;
54241;SDS011;40156;51.080;17.082;2023-03-13T01:47:17;4.75;;;2.22;;
54241;SDS011;40156;51.080;17.082;2023-03-13T01:49:45;5.53;;;2.20;;
54241;SDS011;40156;51.080;17.082;2023-03-13T01:52:14;5.97;;;2.00;;
54241;SDS011;40156;51.080;17.082;2023-03-13T01:54:50;4.65;;;2.80;;
54241;SDS011;40156;51.080;17.082;2023-03-13T01:57:24;6.15;;;2.63;;
54241;SDS011;40156;51.080;17.082;2023-03-13T02:02:20;6.60;;;3.08;;
54241;SDS011;40156;51.080;17.082;2023-03-13T02:04:50;7.95;;;3.85;;
54241;SDS011;40156;51.080;17.082;2023-03-13T02:07:22;6.25;;;3.72;;
54241;SDS011;40156;51.080;17.082;2023-03-13T02:09:51;6.30;;;3.20;;
54241;SDS011;40156;51.080;17.082;2023-03-13T02:12:41;5.07;;;3.13;;
54241;SDS011;40156;51.080;17.082;2023-03-13T02:15:11;7.40;;;3.65;;
54241;SDS011;40156;51.080;17.082;2023-03-13T02:17:39;6.38;;;3.33;;
54241;SDS011;40156;51.080;17.082;2023-03-13T02:20:08;7.45;;;3.47;;
54241;SDS011;40156;51.080;17.082;2023-03-13T02:27:37;6.13;;;3.65;;
54241;SDS011;40156;51.080;17.082;2023-03-13T02:30:05;6.97;;;3.92;;
54241;SDS011;40156;51.080;17.082;2023-03-13T02:32:32;6.85;;;4.03;;
54241;SDS011;40156;51.080;17.082;2023-03-13T02:35:01;7.75;;;4.75;;
54241;SDS011;40156;51.080;17.082;2023-03-13T02:37:30;9.20;;;4.90;;
54241;SDS011;40156;51.080;17.082;2023-03-13T02:40:00;8.65;;;4.68;;
54241;SDS011;40156;51.080;17.082;2023-03-13T02:42:28;12.68;;;5.43;;
54241;SDS011;40156;51.080;17.082;2023-03-13T02:44:57;10.35;;;4.78;;
54241;SDS011;40156;51.080;17.082;2023-03-13T02:47:24;9.30;;;4.28;;
54241;SDS011;40156;51.080;17.082;2023-03-13T02:49:52;8.80;;;4.43;;
54241;SDS011;40156;51.080;17.082;2023-03-13T02:54:48;8.05;;;4.03;;
54241;SDS011;40156;51.080;17.082;2023-03-13T02:57:17;8.55;;;4.18;;
54241;SDS011;40156;51.080;17.082;2023-03-13T02:59:44;7.47;;;3.63;;
54241;SDS011;40156;51.080;17.082;2023-03-13T03:02:12;6.53;;;3.88;;
54241;SDS011;40156;51.080;17.082;2023-03-13T03:04:39;8.48;;;4.50;;
54241;SDS011;40156;51.080;17.082;2023-03-13T03:07:07;7.40;;;4.28;;
54241;SDS011;40156;51.080;17.082;2023-03-13T03:09:35;9.93;;;4.75;;
54241;SDS011;40156;51.080;17.082;2023-03-13T03:12:02;9.27;;;4.90;;
54241;SDS011;40156;51.080;17.082;2023-03-13T03:14:30;10.95;;;4.85;;
54241;SDS011;40156;51.080;17.082;2023-03-13T03:16:57;10.55;;;5.15;;
54241;SDS011;40156;51.080;17.082;2023-03-13T03:19:25;10.30;;;4.88;;
54241;SDS011;40156;51.080;17.082;2023-03-13T03:21:52;11.40;;;5.50;;
54241;SDS011;40156;51.080;17.082;2023-03-13T03:24:20;10.98;;;5.38;;
54241;SDS011;40156;51.080;17.082;2023-03-13T03:26:47;10.38;;;4.97;;
54241;SDS011;40156;51.080;17.082;2023-03-13T03:29:15;13.23;;;6.07;;
54241;SDS011;40156;51.080;17.082;2023-03-13T03:31:42;12.52;;;5.90;;
54241;SDS011;40156;51.080;17.082;2023-03-13T03:34:10;13.13;;;5.80;;
54241;SDS011;40156;51.080;17.082;2023-03-13T03:36:38;14.05;;;5.53;;
54241;SDS011;40156;51.080;17.082;2023-03-13T03:39:05;14.23;;;6.20;;
54241;SDS011;40156;51.080;17.082;2023-03-13T03:41:33;9.98;;;4.93;;
54241;SDS011;40156;51.080;17.082;2023-03-13T03:44:00;11.77;;;5.70;;
54241;SDS011;40156;51.080;17.082;2023-03-13T03:46:28;13.57;;;5.68;;
54241;SDS011;40156;51.080;17.082;2023-03-13T03:48:55;14.00;;;5.57;;
54241;SDS011;40156;51.080;17.082;2023-03-13T03:51:23;13.40;;;5.80;;
54241;SDS011;40156;51.080;17.082;2023-03-13T03:53:50;14.98;;;6.38;;
54241;SDS011;40156;51.080;17.082;2023-03-13T03:56:18;13.18;;;6.43;;
54241;SDS011;40156;51.080;17.082;2023-03-13T03:58:45;12.77;;;6.63;;
54241;SDS011;40156;51.080;17.082;2023-03-13T04:01:13;17.15;;;7.18;;
54241;SDS011;40156;51.080;17.082;2023-03-13T04:03:40;16.35;;;7.30;;
54241;SDS011;40156;51.080;17.082;2023-03-13T04:06:08;17.05;;;7.50;;
54241;SDS011;40156;51.080;17.082;2023-03-13T04:08:35;17.98;;;7.60;;
54241;SDS011;40156;51.080;17.082;2023-03-13T04:11:03;13.85;;;6.75;;
54241;SDS011;40156;51.080;17.082;2023-03-13T04:13:31;17.23;;;5.93;;
54241;SDS011;40156;51.080;17.082;2023-03-13T04:15:58;13.93;;;6.75;;
54241;SDS011;40156;51.080;17.082;2023-03-13T04:18:26;12.70;;;6.18;;
54241;SDS011;40156;51.080;17.082;2023-03-13T04:21:00;13.60;;;7.05;;
54241;SDS011;40156;51.080;17.082;2023-03-13T04:23:27;16.42;;;6.22;;
54241;SDS011;40156;51.080;17.082;2023-03-13T04:25:55;16.50;;;6.28;;
54241;SDS011;40156;51.080;17.082;2023-03-13T04:28:22;10.73;;;5.65;;
54241;SDS011;40156;51.080;17.082;2023-03-13T04:30:50;13.82;;;6.30;;
54241;SDS011;40156;51.080;17.082;2023-03-13T04:33:17;14.77;;;6.30;;
54241;SDS011;40156;51.080;17.082;2023-03-13T04:35:45;15.85;;;7.13;;
54241;SDS011;40156;51.080;17.082;2023-03-13T04:38:13;18.25;;;8.02;;
54241;SDS011;40156;51.080;17.082;2023-03-13T04:40:40;16.80;;;5.80;;
54241;SDS011;40156;51.080;17.082;2023-03-13T04:43:08;14.57;;;6.88;;
54241;SDS011;40156;51.080;17.082;2023-03-13T04:45:35;12.75;;;6.38;;
54241;SDS011;40156;51.080;17.082;2023-03-13T04:51:45;10.57;;;5.30;;
54241;SDS011;40156;51.080;17.082;2023-03-13T04:54:12;15.23;;;6.13;;
54241;SDS011;40156;51.080;17.082;2023-03-13T04:56:40;13.75;;;6.35;;
54241;SDS011;40156;51.080;17.082;2023-03-13T04:59:11;13.75;;;6.05;;
54241;SDS011;40156;51.080;17.082;2023-03-13T05:01:39;14.77;;;6.47;;
54241;SDS011;40156;51.080;17.082;2023-03-13T05:04:07;15.73;;;6.28;;
54241;SDS011;40156;51.080;17.082;2023-03-13T05:06:35;16.77;;;7.03;;
54241;SDS011;40156;51.080;17.082;2023-03-13T05:09:03;15.10;;;6.85;;
54241;SDS011;40156;51.080;17.082;2023-03-13T05:11:30;13.68;;;7.53;;
54241;SDS011;40156;51.080;17.082;2023-03-13T05:13:58;13.73;;;6.30;;
54241;SDS011;40156;51.080;17.082;2023-03-13T05:16:26;10.70;;;6.25;;
54241;SDS011;40156;51.080;17.082;2023-03-13T05:18:54;14.02;;;6.53;;
54241;SDS011;40156;51.080;17.082;2023-03-13T05:21:21;11.82;;;6.38;;
54241;SDS011;40156;51.080;17.082;2023-03-13T05:23:48;15.90;;;6.72;;
54241;SDS011;40156;51.080;17.082;2023-03-13T05:26:16;13.43;;;6.60;;
54241;SDS011;40156;51.080;17.082;2023-03-13T05:28:44;15.75;;;6.28;;
54241;SDS011;40156;51.080;17.082;2023-03-13T05:31:11;12.38;;;5.68;;
54241;SDS011;40156;51.080;17.082;2023-03-13T05:33:39;10.80;;;6.18;;
54241;SDS011;40156;51.080;17.082;2023-03-13T05:36:07;19.45;;;6.25;;
54241;SDS011;40156;51.080;17.082;2023-03-13T05:38:34;13.48;;;5.95;;
54241;SDS011;40156;51.080;17.082;2023-03-13T05:41:02;18.30;;;7.00;;
54241;SDS011;40156;51.080;17.082;2023-03-13T05:43:29;13.65;;;6.47;;
54241;SDS011;40156;51.080;17.082;2023-03-13T05:45:57;18.60;;;7.30;;
54241;SDS011;40156;51.080;17.082;2023-03-13T05:48:24;16.33;;;6.72;;
54241;SDS011;40156;51.080;17.082;2023-03-13T05:50:52;15.60;;;7.20;;
54241;SDS011;40156;51.080;17.082;2023-03-13T05:53:19;17.90;;;6.65;;
54241;SDS011;40156;51.080;17.082;2023-03-13T05:55:47;16.67;;;7.00;;
54241;SDS011;40156;51.080;17.082;2023-03-13T05:58:14;16.00;;;6.82;;
54241;SDS011;40156;51.080;17.082;2023-03-13T06:00:42;15.88;;;6.90;;
54241;SDS011;40156;51.080;17.082;2023-03-13T06:03:10;16.23;;;6.80;;
54241;SDS011;40156;51.080;17.082;2023-03-13T06:05:40;13.88;;;6.47;;
54241;SDS011;40156;51.080;17.082;2023-03-13T06:08:08;14.90;;;6.70;;
54241;SDS011;40156;51.080;17.082;2023-03-13T06:10:35;16.23;;;7.50;;
54241;SDS011;40156;51.080;17.082;2023-03-13T06:13:03;16.55;;;6.50;;
54241;SDS011;40156;51.080;17.082;2023-03-13T06:15:52;18.17;;;7.22;;
54241;SDS011;40156;51.080;17.082;2023-03-13T06:18:20;12.27;;;6.88;;
54241;SDS011;40156;51.080;17.082;2023-03-13T06:20:48;15.18;;;6.53;;
54241;SDS011;40156;51.080;17.082;2023-03-13T06:23:16;16.73;;;6.97;;
54241;SDS011;40156;51.080;17.082;2023-03-13T06:25:46;17.05;;;6.97;;
54241;SDS011;40156;51.080;17.082;2023-03-13T06:28:14;15.88;;;7.10;;
54241;SDS011;40156;51.080;17.082;2023-03-13T06:30:41;16.13;;;7.25;;
54241;SDS011;40156;51.080;17.082;2023-03-13T06:33:09;21.45;;;8.15;;
54241;SDS011;40156;51.080;17.082;2023-03-13T06:35:40;20.90;;;8.20;;
54241;SDS011;40156;51.080;17.082;2023-03-13T06:38:23;13.38;;;6.63;;
54241;SDS011;40156;51.080;17.082;2023-03-13T06:40:50;11.38;;;7.05;;
54241;SDS011;40156;51.080;17.082;2023-03-13T06:43:18;19.52;;;7.75;;
54241;SDS011;40156;51.080;17.082;2023-03-13T06:45:46;13.02;;;6.35;;
54241;SDS011;40156;51.080;17.082;2023-03-13T06:48:14;16.70;;;6.82;;
54241;SDS011;40156;51.080;17.082;2023-03-13T06:50:41;17.13;;;7.55;;
54241;SDS011;40156;51.080;17.082;2023-03-13T06:53:18;13.73;;;7.00;;
54241;SDS011;40156;51.080;17.082;2023-03-13T06:55:46;13.07;;;5.97;;
54241;SDS011;40156;51.080;17.082;2023-03-13T06:58:14;10.48;;;5.68;;
54241;SDS011;40156;51.080;17.082;2023-03-13T07:01:04;17.45;;;6.25;;
54241;SDS011;40156;51.080;17.082;2023-03-13T07:03:32;14.32;;;5.70;;
54241;SDS011;40156;51.080;17.082;2023-03-13T07:06:00;12.13;;;5.40;;
54241;SDS011;40156;51.080;17.082;2023-03-13T07:11:23;10.27;;;4.82;;
54241;SDS011;40156;51.080;17.082;2023-03-13T07:13:53;12.10;;;5.18;;
54241;SDS011;40156;51.080;17.082;2023-03-13T07:16:36;8.30;;;4.90;;
54241;SDS011;40156;51.080;17.082;2023-03-13T07:19:03;8.75;;;5.13;;
54241;SDS011;40156;51.080;17.082;2023-03-13T07:21:31;11.70;;;5.82;;
54241;SDS011;40156;51.080;17.082;2023-03-13T07:23:58;12.88;;;4.90;;
54241;SDS011;40156;51.080;17.082;2023-03-13T07:26:26;12.77;;;5.05;;
54241;SDS011;40156;51.080;17.082;2023-03-13T07:28:54;9.07;;;4.93;;
54241;SDS011;40156;51.080;17.082;2023-03-13T07:31:21;10.43;;;4.40;;
54241;SDS011;40156;51.080;17.082;2023-03-13T07:33:49;11.43;;;4.90;;
54241;SDS011;40156;51.080;17.082;2023-03-13T07:36:17;11.98;;;4.95;;
54241;SDS011;40156;51.080;17.082;2023-03-13T07:38:48;9.93;;;4.63;;
54241;SDS011;40156;51.080;17.082;2023-03-13T07:41:16;13.52;;;5.25;;
54241;SDS011;40156;51.080;17.082;2023-03-13T07:43:43;10.32;;;4.93;;
54241;SDS011;40156;51.080;17.082;2023-03-13T07:46:13;8.32;;;4.63;;
54241;SDS011;40156;51.080;17.082;2023-03-13T07:48:41;13.25;;;5.43;;
54241;SDS011;40156;51.080;17.082;2023-03-13T07:54:35;9.73;;;4.70;;
54241;SDS011;40156;51.080;17.082;2023-03-13T08:00:24;5.93;;;3.92;;
54241;SDS011;40156;51.080;17.082;2023-03-13T08:02:52;12.95;;;4.60;;
54241;SDS011;40156;51.080;17.082;2023-03-13T08:05:19;10.43;;;4.55;;
54241;SDS011;40156;51.080;17.082;2023-03-13T08:07:47;8.52;;;4.00;;
54241;SDS011;40156;51.080;17.082;2023-03-13T08:10:15;14.25;;;5.10;;
54241;SDS011;40156;51.080;17.082;2023-03-13T08:12:42;7.70;;;3.97;;
54241;SDS011;40156;51.080;17.082;2023-03-13T08:15:10;10.05;;;4.15;;
54241;SDS011;40156;51.080;17.082;2023-03-13T08:17:38;10.93;;;3.65;;
54241;SDS011;40156;51.080;17.082;2023-03-13T08:20:05;11.18;;;4.35;;
54241;SDS011;40156;51.080;17.082;2023-03-13T08:22:33;12.43;;;5.25;;
54241;SDS011;40156;51.080;17.082;2023-03-13T08:25:00;9.05;;;3.83;;
54241;SDS011;40156;51.080;17.082;2023-03-13T08:27:28;9.80;;;4.00;;
54241;SDS011;40156;51.080;17.082;2023-03-13T08:29:56;8.55;;;3.70;;
54241;SDS011;40156;51.080;17.082;2023-03-13T08:32:23;9.90;;;3.50;;
54241;SDS011;40156;51.080;17.082;2023-03-13T08:34:51;8.05;;;3.50;;
54241;SDS011;40156;51.080;17.082;2023-03-13T08:37:18;10.90;;;3.88;;
54241;SDS011;40156;51.080;17.082;2023-03-13T08:39:46;8.52;;;3.70;;
54241;SDS011;40156;51.080;17.082;2023-03-13T08:42:13;9.55;;;3.70;;
54241;SDS011;40156;51.080;17.082;2023-03-13T08:44:41;4.78;;;2.90;;
54241;SDS011;40156;51.080;17.082;2023-03-13T08:47:09;8.77;;;3.70;;
54241;SDS011;40156;51.080;17.082;2023-03-13T08:49:36;9.10;;;2.88;;
54241;SDS011;40156;51.080;17.082;2023-03-13T08:52:04;9.90;;;3.25;;
54241;SDS011;40156;51.080;17.082;2023-03-13T08:54:32;9.43;;;2.83;;
54241;SDS011;40156;51.080;17.082;2023-03-13T08:57:00;6.50;;;2.92;;
54241;SDS011;40156;51.080;17.082;2023-03-13T08:59:27;7.10;;;2.58;;
54241;SDS011;40156;51.080;17.082;2023-03-13T09:01:55;8.82;;;2.72;;
54241;SDS011;40156;51.080;17.082;2023-03-13T09:04:23;8.98;;;2.42;;
54241;SDS011;40156;51.080;17.082;2023-03-13T09:06:50;5.43;;;2.67;;
54241;SDS011;40156;51.080;17.082;2023-03-13T09:09:18;8.38;;;2.45;;
54241;SDS011;40156;51.080;17.082;2023-03-13T09:11:45;5.45;;;2.53;;
54241;SDS011;40156;51.080;17.082;2023-03-13T09:14:13;10.68;;;3.55;;
54241;SDS011;40156;51.080;17.082;2023-03-13T09:16:40;15.50;;;2.03;;
54241;SDS011;40156;51.080;17.082;2023-03-13T09:19:08;9.13;;;2.92;;
54241;SDS011;40156;51.080;17.082;2023-03-13T09:21:36;6.72;;;2.20;;
54241;SDS011;40156;51.080;17.082;2023-03-13T09:24:03;6.75;;;2.38;;
54241;SDS011;40156;51.080;17.082;2023-03-13T09:26:31;6.22;;;1.73;;
54241;SDS011;40156;51.080;17.082;2023-03-13T09:28:59;6.30;;;2.20;;
54241;SDS011;40156;51.080;17.082;2023-03-13T09:31:30;8.13;;;2.10;;
54241;SDS011;40156;51.080;17.082;2023-03-13T09:33:58;8.93;;;2.38;;
54241;SDS011;40156;51.080;17.082;2023-03-13T09:36:26;5.40;;;2.60;;
54241;SDS011;40156;51.080;17.082;2023-03-13T09:38:55;7.45;;;2.22;;
54241;SDS011;40156;51.080;17.082;2023-03-13T09:43:56;8.63;;;2.80;;
54241;SDS011;40156;51.080;17.082;2023-03-13T09:46:27;7.87;;;2.73;;
54241;SDS011;40156;51.080;17.082;2023-03-13T09:52:24;5.78;;;1.50;;
54241;SDS011;40156;51.080;17.082;2023-03-13T09:55:38;6.63;;;1.83;;
54241;SDS011;40156;51.080;17.082;2023-03-13T10:00:15;5.35;;;1.88;;
54241;SDS011;40156;51.080;17.082;2023-03-13T10:02:45;6.72;;;1.83;;
54241;SDS011;40156;51.080;17.082;2023-03-13T10:08:36;7.20;;;2.20;;
54241;SDS011;40156;51.080;17.082;2023-03-13T10:11:11;5.80;;;1.67;;
54241;SDS011;40156;51.080;17.082;2023-03-13T10:22:37;6.90;;;1.45;;
54241;SDS011;40156;51.080;17.082;2023-03-13T10:25:06;10.80;;;4.15;;
54241;SDS011;40156;51.080;17.082;2023-03-13T10:28:10;7.00;;;2.20;;
54241;SDS011;40156;51.080;17.082;2023-03-13T10:30:33;3.50;;;2.20;;
54241;SDS011;40156;51.080;17.082;2023-03-13T10:35:35;8.45;;;2.05;;
54241;SDS011;40156;51.080;17.082;2023-03-13T10:38:14;8.20;;;2.33;;
54241;SDS011;40156;51.080;17.082;2023-03-13T10:40:51;7.85;;;2.17;;
54241;SDS011;40156;51.080;17.082;2023-03-13T10:45:53;7.63;;;2.05;;
54241;SDS011;40156;51.080;17.082;2023-03-13T10:48:22;4.97;;;1.88;;
54241;SDS011;40156;51.080;17.082;2023-03-13T10:50:51;7.30;;;2.30;;
54241;SDS011;40156;51.080;17.082;2023-03-13T10:55:53;5.93;;;2.03;;
54241;SDS011;40156;51.080;17.082;2023-03-13T10:58:34;10.50;;;2.13;;
54241;SDS011;40156;51.080;17.082;2023-03-13T11:01:16;6.00;;;2.40;;
54241;SDS011;40156;51.080;17.082;2023-03-13T11:03:45;7.75;;;2.30;;
54241;SDS011;40156;51.080;17.082;2023-03-13T11:08:59;7.80;;;1.98;;
54241;SDS011;40156;51.080;17.082;2023-03-13T11:11:28;5.03;;;1.77;;
54241;SDS011;40156;51.080;17.082;2023-03-13T11:14:18;6.13;;;2.17;;
54241;SDS011;40156;51.080;17.082;2023-03-13T11:19:20;8.80;;;2.30;;
54241;SDS011;40156;51.080;17.082;2023-03-13T11:24:56;9.25;;;2.10;;
54241;SDS011;40156;51.080;17.082;2023-03-13T11:32:51;9.43;;;2.50;;
54241;SDS011;40156;51.080;17.082;2023-03-13T11:35:44;5.75;;;2.50;;
54241;SDS011;40156;51.080;17.082;2023-03-13T11:38:14;7.68;;;2.60;;
54241;SDS011;40156;51.080;17.082;2023-03-13T11:46:44;9.18;;;1.95;;
54241;SDS011;40156;51.080;17.082;2023-03-13T11:51:49;7.57;;;2.50;;
54241;SDS011;40156;51.080;17.082;2023-03-13T11:56:58;5.75;;;2.13;;
54241;SDS011;40156;51.080;17.082;2023-03-13T12:04:46;9.00;;;2.80;;
54241;SDS011;40156;51.080;17.082;2023-03-13T12:09:56;8.90;;;2.20;;
54241;SDS011;40156;51.080;17.082;2023-03-13T12:12:33;6.95;;;2.58;;
54241;SDS011;40156;51.080;17.082;2023-03-13T12:17:37;9.07;;;2.15;;
54241;SDS011;40156;51.080;17.082;2023-03-13T12:24:03;7.28;;;2.13;;
54241;SDS011;40156;51.080;17.082;2023-03-13T12:31:35;4.70;;;1.98;;
54241;SDS011;40156;51.080;17.082;2023-03-13T12:42:54;3.50;;;1.42;;
54241;SDS011;40156;51.080;17.082;2023-03-13T12:45:22;5.95;;;1.67;;
54241;SDS011;40156;51.080;17.082;2023-03-13T12:55:45;2.10;;;1.25;;
54241;SDS011;40156;51.080;17.082;2023-03-13T12:58:27;7.68;;;2.35;;
54241;SDS011;40156;51.080;17.082;2023-03-13T13:00:56;5.15;;;1.55;;
54241;SDS011;40156;51.080;17.082;2023-03-13T13:03:35;6.07;;;2.05;;
54241;SDS011;40156;51.080;17.082;2023-03-13T13:06:09;4.28;;;1.50;;
54241;SDS011;40156;51.080;17.082;2023-03-13T13:14:00;1.92;;;1.00;;
54241;SDS011;40156;51.080;17.082;2023-03-13T13:16:28;4.03;;;1.33;;
54241;SDS011;40156;51.080;17.082;2023-03-13T13:19:11;2.85;;;1.17;;
54241;SDS011;40156;51.080;17.082;2023-03-13T13:21:43;6.05;;;1.48;;
54241;SDS011;40156;51.080;17.082;2023-03-13T13:28:02;3.38;;;1.48;;
54241;SDS011;40156;51.080;17.082;2023-03-13T13:35:44;2.88;;;1.50;;
54241;SDS011;40156;51.080;17.082;2023-03-13T13:43:33;3.38;;;1.73;;
54241;SDS011;40156;51.080;17.082;2023-03-13T13:48:32;3.53;;;1.60;;
54241;SDS011;40156;51.080;17.082;2023-03-13T14:01:44;5.57;;;2.00;;
54241;SDS011;40156;51.080;17.082;2023-03-13T14:04:27;4.45;;;1.80;;
54241;SDS011;40156;51.080;17.082;2023-03-13T14:07:08;2.88;;;1.65;;
54241;SDS011;40156;51.080;17.082;2023-03-13T14:13:19;4.30;;;1.90;;
54241;SDS011;40156;51.080;17.082;2023-03-13T14:19:51;3.17;;;1.42;;
54241;SDS011;40156;51.080;17.082;2023-03-13T14:22:43;8.35;;;2.22;;
54241;SDS011;40156;51.080;17.082;2023-03-13T14:25:27;5.70;;;2.20;;
54241;SDS011;40156;51.080;17.082;2023-03-13T14:31:34;4.13;;;1.92;;
54241;SDS011;40156;51.080;17.082;2023-03-13T14:34:15;3.38;;;2.13;;
54241;SDS011;40156;51.080;17.082;2023-03-13T14:36:57;4.53;;;2.38;;
54241;SDS011;40156;51.080;17.082;2023-03-13T14:52:12;6.05;;;2.65;;
54241;SDS011;40156;51.080;17.082;2023-03-13T14:58:35;3.20;;;1.92;;
54241;SDS011;40156;51.080;17.082;2023-03-13T15:01:23;6.05;;;2.08;;
54241;SDS011;40156;51.080;17.082;2023-03-13T15:04:09;3.80;;;2.05;;
54241;SDS011;40156;51.080;17.082;2023-03-13T15:07:07;7.40;;;2.30;;
54241;SDS011;40156;51.080;17.082;2023-03-13T15:09:40;3.60;;;2.15;;
54241;SDS011;40156;51.080;17.082;2023-03-13T15:15:42;5.43;;;2.20;;
54241;SDS011;40156;51.080;17.082;2023-03-13T15:21:35;3.33;;;1.98;;
54241;SDS011;40156;51.080;17.082;2023-03-13T15:24:12;5.75;;;2.03;;
54241;SDS011;40156;51.080;17.082;2023-03-13T15:26:40;5.20;;;2.10;;
54241;SDS011;40156;51.080;17.082;2023-03-13T15:29:08;3.35;;;1.90;;
54241;SDS011;40156;51.080;17.082;2023-03-13T15:31:36;7.05;;;3.00;;
54241;SDS011;40156;51.080;17.082;2023-03-13T15:37:26;5.72;;;2.75;;
54241;SDS011;40156;51.080;17.082;2023-03-13T15:39:55;6.90;;;2.95;;
54241;SDS011;40156;51.080;17.082;2023-03-13T15:42:22;6.72;;;2.40;;
54241;SDS011;40156;51.080;17.082;2023-03-13T15:44:50;4.45;;;2.10;;
54241;SDS011;40156;51.080;17.082;2023-03-13T15:47:20;3.55;;;1.98;;
54241;SDS011;40156;51.080;17.082;2023-03-13T15:49:55;3.55;;;2.17;;
54241;SDS011;40156;51.080;17.082;2023-03-13T15:52:22;6.07;;;2.70;;
54241;SDS011;40156;51.080;17.082;2023-03-13T15:54:50;6.15;;;2.17;;
54241;SDS011;40156;51.080;17.082;2023-03-13T15:57:21;6.13;;;2.50;;
54241;SDS011;40156;51.080;17.082;2023-03-13T15:59:51;4.30;;;2.08;;
54241;SDS011;40156;51.080;17.082;2023-03-13T16:02:20;6.15;;;2.75;;
54241;SDS011;40156;51.080;17.082;2023-03-13T16:04:49;5.95;;;2.38;;
54241;SDS011;40156;51.080;17.082;2023-03-13T16:07:18;3.70;;;2.13;;
54241;SDS011;40156;51.080;17.082;2023-03-13T16:09:46;3.22;;;2.00;;
54241;SDS011;40156;51.080;17.082;2023-03-13T16:12:14;5.43;;;2.70;;
54241;SDS011;40156;51.080;17.082;2023-03-13T16:14:42;6.72;;;3.15;;
54241;SDS011;40156;51.080;17.082;2023-03-13T16:17:16;5.88;;;2.75;;
54241;SDS011;40156;51.080;17.082;2023-03-13T16:19:44;4.30;;;1.95;;
54241;SDS011;40156;51.080;17.082;2023-03-13T16:22:17;3.88;;;2.30;;
54241;SDS011;40156;51.080;17.082;2023-03-13T16:24:45;4.40;;;2.13;;
54241;SDS011;40156;51.080;17.082;2023-03-13T16:27:16;5.57;;;2.55;;
54241;SDS011;40156;51.080;17.082;2023-03-13T16:33:23;3.90;;;2.22;;
54241;SDS011;40156;51.080;17.082;2023-03-13T16:35:54;4.80;;;2.53;;
54241;SDS011;40156;51.080;17.082;2023-03-13T16:38:22;9.95;;;3.75;;
54241;SDS011;40156;51.080;17.082;2023-03-13T16:40:49;4.53;;;2.65;;
54241;SDS011;40156;51.080;17.082;2023-03-13T16:43:17;3.78;;;2.55;;
54241;SDS011;40156;51.080;17.082;2023-03-13T16:45:45;5.25;;;2.47;;
54241;SDS011;40156;51.080;17.082;2023-03-13T16:48:12;3.60;;;1.98;;
54241;SDS011;40156;51.080;17.082;2023-03-13T16:50:43;3.30;;;2.00;;
54241;SDS011;40156;51.080;17.082;2023-03-13T16:53:10;4.95;;;2.60;;
54241;SDS011;40156;51.080;17.082;2023-03-13T16:55:38;3.88;;;2.28;;
54241;SDS011;40156;51.080;17.082;2023-03-13T16:58:06;4.70;;;2.50;;
54241;SDS011;40156;51.080;17.082;2023-03-13T17:00:33;4.05;;;2.10;;
54241;SDS011;40156;51.080;17.082;2023-03-13T17:03:01;4.72;;;2.30;;
54241;SDS011;40156;51.080;17.082;2023-03-13T17:05:29;5.90;;;2.65;;
54241;SDS011;40156;51.080;17.082;2023-03-13T17:07:56;3.92;;;2.35;;
54241;SDS011;40156;51.080;17.082;2023-03-13T17:10:25;4.85;;;2.08;;
54241;SDS011;40156;51.080;17.082;2023-03-13T17:12:52;4.65;;;2.40;;
54241;SDS011;40156;51.080;17.082;2023-03-13T17:15:21;4.93;;;2.67;;
54241;SDS011;40156;51.080;17.082;2023-03-13T17:17:49;8.25;;;3.13;;
54241;SDS011;40156;51.080;17.082;2023-03-13T17:20:24;4.53;;;2.25;;
54241;SDS011;40156;51.080;17.082;2023-03-13T17:22:52;4.47;;;2.28;;
54241;SDS011;40156;51.080;17.082;2023-03-13T17:25:20;4.70;;;2.40;;
54241;SDS011;40156;51.080;17.082;2023-03-13T17:27:48;6.32;;;2.42;;
54241;SDS011;40156;51.080;17.082;2023-03-13T17:32:49;4.22;;;2.30;;
54241;SDS011;40156;51.080;17.082;2023-03-13T17:35:18;4.80;;;1.88;;
54241;SDS011;40156;51.080;17.082;2023-03-13T17:37:46;4.32;;;1.95;;
54241;SDS011;40156;51.080;17.082;2023-03-13T17:40:21;4.47;;;2.63;;
54241;SDS011;40156;51.080;17.082;2023-03-13T17:42:51;13.20;;;5.75;;
54241;SDS011;40156;51.080;17.082;2023-03-13T17:45:18;21.75;;;10.80;;
54241;SDS011;40156;51.080;17.082;2023-03-13T17:47:46;24.67;;;11.55;;
54241;SDS011;40156;51.080;17.082;2023-03-13T17:50:16;24.40;;;10.52;;
54241;SDS011;40156;51.080;17.082;2023-03-13T17:52:44;26.52;;;14.00;;
54241;SDS011;40156;51.080;17.082;2023-03-13T17:55:12;24.98;;;12.20;;
54241;SDS011;40156;51.080;17.082;2023-03-13T17:57:40;19.83;;;8.18;;